Tiempo atmosférico en la estación meteorológica de Cazalla De La Sierra, Sevilla (550 m.)



Fecha
DESCASC
Temp. máxima en grados centígrados (hora)
DESCASC
Temp. mínima en grados centígrados (hora)
DESCASC
Temp. media en grados centígrados
DESCASC
Racha de viento máxima en m/sg (hora)
DESCASC
Velocidad máxima media en intervalos de 10 minutos(hora)
DESCASC
Precipitaciones diarias en mm
DESCASC
Precipitaciones de 00:00 a 06:00 en mm
DESCASC
Precipitaciones de 06:00 a 12:00 en mm
DESCASC
Precipitaciones de 12:00 a 18:00 en mm
DESCASC
Precipitaciones de 18:00 a 24:00 en mm
DESCASC
14-10-2018 20.5 (00:30) 10.7 (23:59) 15.6 10.83 (13:00) 6.39 (13:00) 14 12.5 1.5 0 0
13-10-2018 27.5 (16:00) 13.6 (07:30) 20.6 7.5 (17:20) 3.06 (17:00) 0.1 0 0.1 0 0
12-10-2018 22.4 (17:10) 16.1 (22:40) 19.3 6.11 (00:50) 2.22 (00:50) 8.3 4.4 3.8 0.1 0
11-10-2018 21.4 (16:20) 16.5 (06:30) 18.9 7.78 (16:40) 3.61 (16:00) 18.4 0.5 16 0 1.9
10-10-2018 22.7 (17:40) 16.1 (08:50) 19.4 7.78 (17:00) 3.61 (17:00) 0 0 0 0 0
08-10-2018 25.3 (17:10) 8.6 (08:10) 16.9 5.83 (17:20) 2.78 (18:20) 0 0 0 0 0
07-10-2018 29.5 (16:50) 10.9 (08:20) 20.2 8.33 (16:00) 5 (16:10) 0 0 0 0 0
06-10-2018 30 (16:40) 11.4 (08:40) 20.7 7.5 (17:30) 3.06 (17:30) 0 0 0 0 0
05-10-2018 29.3 (16:10) 11.6 (07:00) 20.4 5 (15:30) 2.22 (16:30) 0 0 0 0 0
04-10-2018 29.4 (16:00) 11 (00:00) 20.2 5 (12:40) 2.22 (15:30) 0 0 0 0 0
03-10-2018 29.5 (17:10) 10.6 (00:00) 20.1 7.5 (16:30) 2.5 (14:30) 0 0 0 0 0
02-10-2018 30.2 (16:10) 13.1 (00:00) 21.7 6.67 (16:50) 3.61 (10:50) 0 0 0 0 0
01-10-2018 31.3 (16:10) 14.4 (00:00) 22.8 7.22 (17:00) 2.78 (17:50) 0 0 0 0 0
30-09-2018 29.9 (16:30) 14.7 (00:00) 22.3 6.67 (17:40) 2.78 (12:20) 7.5 0 0 0 7.5
29-09-2018 28.7 (15:10) 13.2 (00:00) 21 6.11 (15:10) 2.78 (16:30) 0 0 0 0 0
28-09-2018 29.4 (18:00) 14.1 (00:00) 21.8 6.11 (15:10) 2.22 (14:50) 0 0 0 0 0
27-09-2018 28.8 (18:40) 16.1 (00:00) 22.4 6.94 (13:30) 3.61 (10:20) 0 0 0 0 0
26-09-2018 29.5 (16:50) 18.3 (00:00) 23.9 9.72 (20:20) 5 (20:20) 0 0 0 0 0
25-09-2018 33.1 (15:30) 16.7 (00:00) 24.9 6.39 (15:50) 2.5 (16:20) 0 0 0 0 0
24-09-2018 34.4 (15:50) 16.3 (00:00) 25.4 5.83 (16:50) 2.22 (17:00) 0 0 0 0 0
23-09-2018 34.7 (16:40) 16.4 (08:10) 25.6 6.39 (18:00) 2.5 (18:20) 0 0 0 0 0
22-09-2018 33.9 (17:40) 16.9 (08:20) 25.4 5.83 (14:50) 2.5 (15:40) 0 0 0 0 0
21-09-2018 31.7 (16:40) 15.8 (07:30) 23.8 5 (18:00) 2.22 (18:20) 0 0 0 0 0
20-09-2018 30.8 (15:50) 16.2 (06:40) 23.5 5.28 (16:00) 2.22 (16:30) 0 0 0 0 0
19-09-2018 30.8 (14:30) 15.5 (07:50) 23.1 6.39 (16:10) 2.22 (11:30) 0 0 0 0 0
18-09-2018 29.7 (16:30) 16.7 (06:40) 23.2 5.83 (16:30) 2.78 (17:30) 0 0 0 0 0
17-09-2018 28.8 (18:00) 16.8 (07:50) 22.8 6.39 (16:00) 2.78 (15:00) 0 0 0 0 0
16-09-2018 29 (18:30) 16.1 (00:00) 22.6 5.28 (12:30) 2.22 (12:40) 0 0 0 0 0
15-09-2018 28 (16:10) 15.8 (00:00) 21.9 8.06 (19:30) 3.33 (19:30) 0.1 0.1 0 0 0

Gráficas

Temp. máximas Temp. mínimas Temp. medias Precipitaciones Rachas de viento máximas Velocidades máximas media en intervalos de 10 minutos

Datos horarios

Fecha y hora oficial Temperatura (ºC) Velocidad del viento (km/h) Dirección del viento Racha (km/h) Dirección de racha Precipitación (mm) Presión (hPa) Tendencia (hPa) Humedad (%)
2018-10-14 23:00:00 11.6 6 Noroeste 17 Oeste 0 950.4 1.2 69
2018-10-14 22:00:00 12.2 10 Noroeste 17 Noroeste 0 949.8 0.8 65
2018-10-14 21:00:00 12.8 7 Noroeste 18 Noroeste 0 949.8 0.9 59
2018-10-14 20:00:00 13.2 8 Oeste 28 Noroeste 0 949.2 0.4 54
2018-10-14 19:00:00 16.2 10 Noroeste 33 Noroeste 0 949 -0.1 44
2018-10-14 18:00:00 15.9 16 Noroeste 36 Oeste 0 948.9 -0.7 44
2018-10-14 17:00:00 17.3 18 Noroeste 36 Noroeste 0 948.8 -0.7 40
2018-10-14 16:00:00 16 21 Noroeste 36 Noroeste 0 949.1 -0.5 47
2018-10-14 15:00:00 15.5 18 Noroeste 35 Noroeste 0 949.6 0.2 48
2018-10-14 14:00:00 15.5 14 Noroeste 34 Noroeste 0 949.5 0.5 52
2018-10-14 13:00:00 14.6 23 Noroeste 39 Noroeste 0 949.6 1 56
2018-10-14 12:00:00 14 13 Noroeste 32 Noroeste 0 949.4 2.1 63
2018-10-14 11:00:00 12.6 12 Noroeste 32 Noroeste 0 949 1.9 73
2018-10-14 10:00:00 12 10 Noroeste 31 Noroeste 0 948.6 2.4 82
2018-10-14 09:00:00 11.6 10 Noroeste 25 Noroeste 0 947.3 2.2 85
2018-10-14 08:00:00 13 13 Noroeste 30 Noroeste 0 947.1 1.2 87
2018-10-14 07:00:00 14.7 10 Oeste 23 Noroeste 1.5 946.2 -0.1 87
2018-10-14 06:00:00 15.7 6 Oeste 21 Oeste 3.9 945.1 -1.6 91
2018-10-14 05:00:00 16 9 Oeste 28 Oeste 8.6 945.9 -1.1 91
2018-10-14 04:00:00 17.5 8 Sudoeste 32 Sudoeste 0 946.3 -1 84
2018-10-14 03:00:00 17.8 6 Sudoeste 19 Sudoeste 0 946.7 -1.6 74
2018-10-14 02:00:00 18.7 7 Sudoeste 29 Oeste 0 947 -1.9 69
2018-10-14 01:00:00 19.8 8 Sudoeste 27 Sudoeste 0 947.3 -1.6 63
2018-10-14 00:00:00 20.1 6 Sudoeste 17 Sudoeste 0 948.3 -0.9 64
2018-10-13 23:00:00 20.5 7 Sudoeste 19 Oeste 0 948.9 -0.5 65
2018-10-13 22:00:00 21.1 4 Sur 14 Sudeste 0 948.9 -1.1 63
2018-10-13 21:00:00 21.1 2 Sur 12 Sur 0 949.2 -1.1 57
2018-10-13 20:00:00 22.6 4 Sur 12 Sur 0 949.4 -1.1 47
2018-10-13 19:00:00 24.5 6 Sudoeste 21 Sudoeste 0 950 -1 39
2018-10-13 18:00:00 25.7 8 Sudoeste 27 Oeste 0 950.3 -1.8 35
2018-10-13 17:00:00 26.3 11 Sudoeste 24 Sudoeste 0 950.5 -2.5 33
2018-10-13 16:00:00 27 7 Sudoeste 24 Sur 0 951 -2.5 33
2018-10-13 15:00:00 25.5 8 Sur 19 Sur 0 952.1 -1.9 34
2018-10-13 14:00:00 25.4 5 Sudeste 16 Sur 0 953 -1.4 38
2018-10-13 13:00:00 24.2 4 Sudeste 16 Sur 0 953.5 -0.7 44
2018-10-13 12:00:00 22.3 4 Sudeste 15 Sudeste 0 954 -0.1 52
2018-10-13 11:00:00 20.3 5 Sudeste 13 Sur 0 954.4 0.5 59
2018-10-13 10:00:00 18.8 4 Este 8 Este 0 954.2 -0.1 76
2018-10-13 09:00:00 14.3 3 Este 8 Este 0 954.1 -0.4 91
2018-10-13 08:00:00 15.3 5 Este 8 Este 0 953.9 -0.9 87
2018-10-13 07:00:00 15.2 5 Este 12 Este 0.1 954.3 -1.1 85
2018-10-13 06:00:00 14 6 Este 9 Este 0 954.5 -1.4 91
2018-10-13 05:00:00 14.1 0 Calma 5 Este 0 954.8 -1.6 91
2018-10-13 04:00:00 14.7 0 Calma 4 Sudeste 0 955.4 -1.7 91
2018-10-13 03:00:00 15.3 2 Sudeste 8 Este 0 955.9 -1.6 91
2018-10-13 02:00:00 15.9 4 Sudeste -- -- -- 956.4 -1.5 91
2018-10-13 01:00:00 16.2 4 Este 9 Este 0 957.1 -0.7 91
2018-10-13 00:00:00 16.2 4 Este 7 Este 0 957.5 -0.3 91
2018-10-12 23:00:00 16.4 0 Calma -- -- 0 957.9 0.3 90
2018-10-12 22:00:00 16.8 0 Calma 0 Calma 0 957.8 0.2 90
2018-10-12 21:00:00 17.9 0 Calma -- -- 0 957.8 0.2 87
2018-10-12 20:00:00 19.2 0 Calma 0 Calma 0 957.6 -0.1 82
2018-10-12 19:00:00 21.8 0 Calma 8 Oeste 0 957.6 -0.2 67
2018-10-12 18:00:00 22.1 5 Oeste 11 Oeste 0 957.6 -1 64
2018-10-12 17:00:00 21.5 3 Oeste 13 Noroeste 0 957.7 -1.1 67
2018-10-12 16:00:00 21.1 3 Sudoeste 10 Oeste 0 957.8 -1.3 72
2018-10-12 15:00:00 19.6 4 Oeste 12 Sudoeste 0 958.6 -0.3 79
2018-10-12 14:00:00 19 4 Sudoeste 15 Sur 0 958.8 0.2 85
2018-10-12 13:00:00 18.1 4 Sudoeste 14 Oeste 0.1 959.1 1.2 89
2018-10-12 12:00:00 17.6 5 Sur 16 Sur 1 958.9 1.9 91
2018-10-12 11:00:00 17.2 4 Sur 13 Sur 2.2 958.6 2.2 91
2018-10-12 10:00:00 17.1 2 Sudeste 10 Sur 0 957.9 1.9 92
2018-10-12 09:00:00 17.3 0 Calma 10 Sur 0.1 957 1.4 92
2018-10-12 08:00:00 17.3 2 Sudeste 11 Sur 0.3 956.4 0.9 92
2018-10-12 07:00:00 17.5 0 Calma 12 Sur 0.2 956 0.6 93
2018-10-12 06:00:00 17.5 3 Sur 11 Sur 0.6 955.6 0 93
2018-10-12 05:00:00 17.6 5 Sur 14 Sudoeste 0 955.5 -0.1 92
2018-10-12 04:00:00 17.7 3 Sudeste 14 Sur 0.5 955.4 -0.2 92
2018-10-12 03:00:00 17.9 5 Sur 15 Sur 0.9 955.6 0.2 92
2018-10-12 02:00:00 17.6 5 Sudoeste 14 Sur 1.5 955.6 0.2 94
2018-10-12 01:00:00 17.8 5 Sudoeste 22 Sudoeste 0.9 955.6 1.1 92
2018-10-12 00:00:00 17.7 6 Sudoeste 23 Oeste 0.4 955.4 1.3 91
2018-10-11 23:00:00 17.2 7 Sudoeste 28 Sudoeste 0.9 955.4 1.9 92
2018-10-11 22:00:00 17.5 8 Sudoeste 19 Sudoeste 0.3 954.5 1.9 89
2018-10-11 21:00:00 17.6 6 Sudoeste 20 Sur 0.3 954.1 1.9 87
2018-10-11 20:00:00 17.9 4 Sudoeste 24 Sudoeste 0 953.5 2 87
2018-10-11 19:00:00 18.6 5 Sudoeste 22 Sur 0 952.6 1.8 78
2018-10-11 18:00:00 19.7 9 Sudoeste 27 Sudoeste 0 952.2 1.5 68
2018-10-11 17:00:00 20.1 10 Sudoeste 28 Sudoeste 0 951.5 0.6 61
2018-10-11 16:00:00 21 13 Sudoeste 27 Sudoeste 0 950.8 0.1 59
2018-10-11 15:00:00 19.4 10 Sudoeste 26 Oeste 0 950.7 0.4 65
2018-10-11 14:00:00 18.1 8 Sudoeste 19 Sudoeste 0 950.9 1.3 82
2018-10-11 13:00:00 17.6 7 Sudoeste 18 Sur 0 950.7 1.4 90
2018-10-11 12:00:00 16.9 6 Sudoeste 22 Sur 0.2 950.3 2.4 95
2018-10-11 11:00:00 16.8 9 Sudeste 23 Sur 4.9 949.6 2.1 95
2018-10-11 10:00:00 16.7 0 Calma 20 Oeste 4.4 949.3 2 92
2018-10-11 09:00:00 16.9 4 Sur 13 Sur 0.4 947.9 0.9 92
2018-10-11 08:00:00 16.7 2 Sudeste 19 Sur 2 947.5 0.5 94
2018-10-11 07:00:00 16.6 0 Calma 13 Sudoeste 4.1 947.3 0.2 94
2018-10-11 06:00:00 17 2 Sudoeste 17 Sur 0.5 947 -0.1 90
2018-10-11 05:00:00 17.5 3 Sudoeste 19 Sudoeste 0 947 -0.1 86
2018-10-11 04:00:00 17.7 9 Sudoeste 23 Sudoeste 0 947.1 -0.4 83
2018-10-11 03:00:00 17.6 3 Sudoeste 22 Sudoeste 0 947.1 -0.1 89
2018-10-11 02:00:00 17.5 4 Sudoeste 13 Sudoeste 0 947.1 0.3 87
2018-10-11 01:00:00 17.7 3 Sur 12 Sudoeste 0 947.5 1.1 84
2018-10-11 00:00:00 17.7 4 Sur 10 Sur 0 947.2 1.5 83
2018-10-10 23:00:00 17.6 3 Sudoeste 17 Sudoeste 0 946.8 1.4 82
2018-10-10 22:00:00 18.7 6 Sudoeste 21 Sudoeste 0 946.4 1.7 76
2018-10-10 21:00:00 19 4 Sur 18 Oeste 0 945.7 1.2 70
2018-10-10 20:00:00 19.7 7 Sudoeste 20 Sudoeste 0 945.4 1.3 68
2018-10-10 19:00:00 20.7 7 Sudoeste 25 Sudoeste 0 944.7 0.6 63
2018-10-10 18:00:00 21 8 Sudoeste 24 Sudoeste 0 944.5 0.2 59
2018-10-10 17:00:00 21.2 13 Sudoeste 28 Sudoeste 0 944.1 -0.7 56
2018-10-10 16:00:00 21.6 8 Sudoeste 22 Sur 0 944.1 -0.9 56
2018-10-10 15:00:00 20.4 9 Sudoeste 20 Sudoeste 0 944.3 -0.5 61
2018-10-10 14:00:00 19.7 6 Sur 23 Sudoeste 0 944.8 0 66
2018-10-10 13:00:00 18.6 9 Sudoeste 20 Sudoeste 0 945 0.6 74
2018-10-10 12:00:00 18 5 Sur 19 Sur 0 944.8 0.9 81
2018-10-10 11:00:00 17.3 4 Sudeste 17 Sur 0 944.8 1.3 85
2018-10-10 10:00:00 16.6 7 Sur 18 Sur 0 944.4 0.9 90
2018-10-10 09:00:00 16.3 4 Sudeste 20 Sur 0 943.9 0.4 91
2018-10-10 08:00:00 16.6 3 Sudeste 9 Sur 0 943.5 -0.3 92
2018-10-10 07:00:00 16.7 3 Sudeste 14 Sudoeste 0 943.5 -0.3 91
2018-10-10 06:00:00 16.4 5 Sudoeste 13 Sudoeste 0 943.5 -1.2 91
2018-10-10 05:00:00 16.7 4 Sudoeste 16 Sudoeste 0 943.8 -0.9 90
2018-10-10 04:00:00 16.8 6 Sudoeste 15 Sudoeste 0 943.8 -0.9 89
2018-10-10 03:00:00 17 3 Sudoeste 11 Sudoeste 0 944.7 -0.3 86
2018-10-10 02:00:00 16.8 3 Sur 14 Oeste 0 944.7 0 85
2018-10-10 01:00:00 17.1 5 Oeste 17 Noroeste 0 944.7 0.1 84
2018-10-10 00:00:00 17.8 4 Sur 11 Sur 0 945 0.9 75
2018-10-09 23:00:00 17 0 Calma 9 Oeste 0 944.7 0.9 72
2018-10-09 22:00:00 18.6 4 Sudoeste 12 Sur 0 944.6 0.8 63
2018-10-09 21:00:00 20.1 5 Sur 11 Sudoeste 0 944.1 0.3 56
2018-10-09 20:00:00 20.3 4 Sur 9 Sur 0 943.8 -0.4 53
2018-10-09 19:00:00 21.2 2 Oeste 17 Sudoeste 0 943.8 -0.7 48
2018-10-09 18:00:00 23.8 4 Oeste 22 Oeste 0 943.8 -1.2 43
2018-10-09 17:00:00 23.3 9 Sudoeste 19 Sudoeste 0 944.2 -1.8 43
2018-10-09 16:00:00 23.1 5 Sudoeste 20 Oeste 0 944.5 -2 46
2018-10-09 15:00:00 22.4 6 Sudoeste 25 Sudoeste 0 945 -1.9 49
2018-10-09 14:00:00 22.2 10 Oeste 21 Oeste 0 946 -0.9 52
2018-10-09 13:00:00 21.3 6 Sudoeste 19 Oeste 0 946.5 -0.1 53
2018-10-09 12:00:00 20.2 3 Sur 13 Sur 0 946.9 0.8 61
2018-10-09 11:00:00 17.6 3 Sudeste 9 Este 0 946.9 0.8 68
2018-10-09 10:00:00 15.4 4 Este 8 Este 0 946.6 0.2 78
2018-10-09 09:00:00 11 2 Sudeste 5 Sudeste 0 946.1 -0.6 94
2018-10-09 08:00:00 10.5 2 Sudeste 9 Este 0 946.1 -0.8 91
2018-10-09 07:00:00 10.3 0 Calma 4 Este 0 946.4 -0.7 90
2018-10-09 06:00:00 10.6 4 Este 8 Este 0 946.7 -1 87
2018-10-09 05:00:00 11.2 0 Calma 9 Este 0 946.9 -1.1 83
2018-10-09 04:00:00 12.5 4 Este 10 Este 0 947.1 -1.5 78
2018-10-09 03:00:00 12.2 5 Este 9 Este 0 947.7 -1.2 84
2018-10-09 02:00:00 12.2 5 Este 8 Este 0 948 -1.4 85
2018-10-09 01:00:00 13 3 Sudeste 7 Este 0 948.6 -0.5 83
2018-10-09 00:00:00 13.6 3 Sudeste 6 Sudeste 0 948.9 0.3 81
2018-10-08 23:00:00 14.2 0 Calma 6 Este 0 949.4 0.8 75
2018-10-08 22:00:00 18.4 0 Calma 14 Sudoeste 0 949.1 0.4 59
2018-10-08 21:00:00 19.9 6 Sur 19 Sudoeste 0 948.6 -0.3 53
2018-10-08 20:00:00 21.4 4 Sur 15 Sudoeste 0 948.6 -0.7 48
2018-10-08 19:00:00 23.6 5 Sudoeste 20 Noroeste 0 948.7 -1.2 40
2018-10-08 18:00:00 24.4 7 Oeste 21 Noroeste 0 948.9 -1.3 38
2018-10-08 17:00:00 24.5 0 Calma 19 Oeste 0 949.3 -1.7 38
2018-10-08 16:00:00 24.2 3 Sudoeste 19 Sudoeste 0 949.9 -1.7 38
2018-10-08 15:00:00 25 3 Sur 18 Sur 0 950.2 -1.5 38
2018-10-08 14:00:00 23.2 6 Sudeste 17 Sudeste 0 951 -1 38
2018-10-08 13:00:00 22.8 4 Sur 14 Sur 0 951.6 0 39
2018-10-08 12:00:00 20.9 7 Este 19 Este 0 951.7 0.7 42
2018-10-08 11:00:00 18.3 7 Este 16 Este 0 952 1.3 46
2018-10-08 10:00:00 17 6 Este 12 Sudeste 0 951.6 1.1 51
2018-10-08 09:00:00 9.8 5 Este 8 Este 0 951 0.5 72
2018-10-08 08:00:00 8.8 4 Este 8 Este 0 950.7 0.1 69
2018-10-08 07:00:00 9.6 4 Este 8 Este 0 950.5 -0.6 64
2018-10-08 06:00:00 10.5 3 Sudeste 5 Sudeste 0 950.5 -0.9 59
2018-10-08 05:00:00 11.5 3 Sudeste 8 Este 0 950.6 -1.4 57
2018-10-08 04:00:00 12.4 5 Este 11 Este 0 951.1 -1.1 54
2018-10-08 03:00:00 12.9 2 Sudeste 8 Este 0 951.4 -0.9 54
2018-10-08 02:00:00 13.2 2 Este 9 Sudeste 0 952 -0.2 53
2018-10-08 01:00:00 14.6 3 Sudeste 8 Este 0 952.2 0.2 52
2018-10-08 00:00:00 14.7 3 Este 6 Sudeste 0 952.3 0.7 56
2018-10-07 23:00:00 15.9 2 Sudeste 5 Sur 0 952.2 1.1 53
2018-10-07 22:00:00 15.8 0 Calma 6 Noroeste 0 952 1.3 50
2018-10-07 21:00:00 18.9 0 Calma 8 Norte 0 951.6 1.1 42
2018-10-07 20:00:00 23.3 5 Noroeste 23 Noroeste 0 951.1 0.4 32
2018-10-07 19:00:00 26.5 12 Noroeste 24 Noroeste 0 950.7 -0.3 28
2018-10-07 18:00:00 28.3 11 Noroeste 29 Noroeste 0 950.5 -1.2 27
2018-10-07 17:00:00 28.8 13 Noroeste 27 Oeste 0 950.7 -1.7 26
2018-10-07 16:00:00 28.2 12 Oeste 30 Oeste 0 951 -1.9 28
2018-10-07 15:00:00 27.9 13 Oeste 28 Oeste 0 951.7 -1.5 29
2018-10-07 14:00:00 26.3 11 Oeste 24 Oeste 0 952.4 -1 32
2018-10-07 13:00:00 25.7 6 Oeste 19 Oeste 0 952.9 -0.2 35
2018-10-07 12:00:00 23.6 0 Calma 9 Noroeste 0 953.2 0.6 44
2018-10-07 11:00:00 20.5 4 Oeste 9 Oeste 0 953.4 1 52
2018-10-07 10:00:00 17 0 Calma 4 Este 0 953.1 0.7 73
2018-10-07 09:00:00 12.1 3 Sudeste 5 Sudeste 0 952.6 0.4 84
2018-10-07 08:00:00 11.6 3 Sudeste 7 Este 0 952.4 0 84
2018-10-07 07:00:00 12.4 4 Este 7 Este 0 952.4 -0.3 82
2018-10-07 06:00:00 13.9 3 Sudeste 6 Este 0 952.2 -0.7 80
2018-10-07 05:00:00 13.9 3 Este 7 Sudeste 0 952.4 -0.6 80
2018-10-07 04:00:00 14.5 2 Este 8 Este 0 952.7 -0.8 78
2018-10-07 03:00:00 14.4 3 Sudeste 6 Sudeste 0 952.9 -0.7 80
2018-10-07 02:00:00 14.5 3 Este 6 Este 0 953 -0.8 79
2018-10-07 01:00:00 14.9 3 Este 5 Este 0 953.5 0.2 75
2018-10-07 00:00:00 16.5 0 Calma -- -- 0 953.6 1 71
2018-10-06 23:00:00 17.6 0 Calma 5 Este 0 953.8 1.8 65
2018-10-06 22:00:00 19.8 0 Calma 10 Sur 0 953.3 1.5 50
2018-10-06 21:00:00 23.6 3 Sur 16 Sudeste 0 952.6 1 39
2018-10-06 20:00:00 25 6 Sur 17 Sur 0 952 0.2 34
2018-10-06 19:00:00 27.1 7 Sudoeste 20 Oeste 0 951.8 -0.3 32
2018-10-06 18:00:00 28.1 9 Sudoeste 27 Oeste 0 951.6 -0.8 30
2018-10-06 17:00:00 29.7 4 Oeste 22 Oeste 0 951.8 -1.4 28
2018-10-06 16:00:00 28.8 10 Oeste 24 Oeste 0 952.1 -1.5 28
2018-10-06 15:00:00 29.3 2 Sudoeste 18 Noroeste 0 952.4 -1.9 29
2018-10-06 14:00:00 27.8 3 Sudeste 14 Este 0 953.2 -1.1 34
2018-10-06 13:00:00 26.2 0 Calma 15 Noroeste 0 953.6 -0.2 37
2018-10-06 12:00:00 23.4 2 Sudeste 9 Este 0 954.3 0.8 44
2018-10-06 11:00:00 20.5 8 Este 13 Este 0 954.3 1.7 52
2018-10-06 10:00:00 17.5 0 Calma 8 Este 0 953.8 1.6 70
2018-10-06 09:00:00 12.4 3 Este 6 Este 0 953.5 1.5 83
2018-10-06 08:00:00 12.2 4 Este 9 Este 0 952.6 0.5 83
2018-10-06 07:00:00 12.6 5 Este 9 Este 0 952.2 -0.2 83
2018-10-06 06:00:00 12.6 3 Sudeste 6 Sudeste 0 952 -0.7 81
2018-10-06 05:00:00 13.3 4 Sudeste 8 Este 0 952.1 -0.7 80
2018-10-06 04:00:00 13.5 3 Sudeste 6 Este 0 952.4 -0.4 79
2018-10-06 03:00:00 13.7 3 Este 7 Este 0 952.7 -0.2 78
2018-10-06 02:00:00 14.4 0 Calma 6 Este 0 952.8 0.4 73
2018-10-06 01:00:00 15.7 3 Este 6 Este 0 952.8 0.6 67
2018-10-06 00:00:00 16.9 0 Calma 8 Sudoeste 0 952.9 1 62
2018-10-05 23:00:00 16.2 0 Calma 5 Este 0 952.4 0.7 58
2018-10-05 22:00:00 16.5 3 Este 6 Este 0 952.2 0.7 54
2018-10-05 21:00:00 18.3 3 Este 6 Este 0 951.9 0.5 48
2018-10-05 20:00:00 22.2 2 Este 9 Sur 0 951.7 0.1 37
2018-10-05 19:00:00 26.8 5 Sur 17 Sur 0 951.5 -0.4 29
2018-10-05 18:00:00 27.8 6 Este 17 Sur 0 951.4 -0.9 28
2018-10-05 17:00:00 28.2 4 Sudeste 18 Sur 0 951.6 -1.3 28
2018-10-05 16:00:00 28.1 2 Sur 18 Sur 0 951.9 -1.5 29
2018-10-05 15:00:00 28.1 5 Sudeste 17 Sur 0 952.3 -1.7 29
2018-10-05 14:00:00 27.2 5 Sudeste 17 Sur 0 952.9 -1.1 31
2018-10-05 13:00:00 26.5 4 Sudeste 14 Sur 0 953.4 -0.5 34
2018-10-05 12:00:00 23.7 6 Este 13 Este 0 954 0.4 40
2018-10-05 11:00:00 20.9 5 Este 10 Este 0 954 0.8 47
2018-10-05 10:00:00 18.1 3 Sudeste 8 Este 0 953.9 0.7 57
2018-10-05 09:00:00 12.9 3 Sudeste 6 Este 0 953.6 0.6 75
2018-10-05 08:00:00 12.3 0 Calma 5 Sudeste 0 953.2 0.1 77
2018-10-05 07:00:00 12 3 Sudeste 4 Sudeste 0 953.2 -0.4 78
2018-10-05 06:00:00 13.3 3 Sudeste 5 Sudeste 0 953 -1 73
2018-10-05 05:00:00 12.8 0 Calma 8 Este 0 953.1 -1.1 74
2018-10-05 04:00:00 12.8 2 Este 5 Sudeste 0 953.6 -1 74
2018-10-05 03:00:00 13.5 3 Sudeste 6 Sudeste 0 954 -0.7 70
2018-10-05 02:00:00 14.3 0 Calma 4 Este 0 954.2 -0.5 68
2018-10-05 01:00:00 15.3 2 Sudeste 6 Este 0 954.6 0.3 63
2018-10-05 00:00:00 15.8 0 Calma 8 Este 0 954.7 1 59
2018-10-04 23:00:00 16.7 0 Calma 5 Este 0 954.7 1.1 54
2018-10-04 22:00:00 17.3 3 Este 6 Este 0 954.3 0.7 52
2018-10-04 21:00:00 18.4 3 Este 7 Sur 0 953.7 -0.1 45
2018-10-04 20:00:00 23.3 2 Sur 15 Sur 0 953.6 -0.5 32
2018-10-04 19:00:00 27.3 6 Sur 15 Sur 0 953.6 -0.8 28
2018-10-04 18:00:00 29 2 Sudeste 13 Sur 0 953.8 -1.2 27
2018-10-04 17:00:00 29.3 3 Este 18 Sur 0 954.1 -1.6 27
2018-10-04 16:00:00 28.9 5 Sudoeste 15 Oeste 0 954.4 -1.8 28
2018-10-04 15:00:00 27.5 3 Sur 17 Oeste 0 955 -1.4 30
2018-10-04 14:00:00 27.3 2 Oeste 13 Sudoeste 0 955.7 -0.9 34
2018-10-04 13:00:00 26 5 Sur 18 Sur 0 956.2 0 35
2018-10-04 12:00:00 24.2 5 Sur 14 Sur 0 956.4 0.5 43
2018-10-04 11:00:00 21.7 4 Sudeste 11 Sur 0 956.6 1.2 53
2018-10-04 10:00:00 17.1 0 Calma 5 Sudeste 0 956.2 0.9 70
2018-10-04 09:00:00 11.7 2 Sudeste 6 Sudeste 0 955.9 0.6 85
2018-10-04 08:00:00 11.7 3 Sudeste 5 Este 0 955.4 -0.3 82
2018-10-04 07:00:00 11.7 3 Este 5 Este 0 955.3 -0.8 82
2018-10-04 06:00:00 12.3 2 Sudeste 6 Este 0 955.3 -1 80
2018-10-04 05:00:00 12.3 0 Calma 7 Este 0 955.7 -1 79
2018-10-04 04:00:00 12.8 4 Este 6 Este 0 956.1 -0.8 75
2018-10-04 03:00:00 13.6 4 Este 7 Este 0 956.3 -0.8 71
2018-10-04 02:00:00 14.1 3 Sudeste 5 Sudeste 0 956.7 -0.1 70
2018-10-04 01:00:00 14.7 2 Sudeste 6 Este 0 956.9 0.2 64
2018-10-04 00:00:00 15.1 3 Sudeste 8 Este 0 957.1 0.6 60
2018-10-03 23:00:00 15.4 0 Calma 6 Este 0 956.8 0.6 59
2018-10-03 22:00:00 16.6 0 Calma 4 Sudeste 0 956.7 0.7 53
2018-10-03 21:00:00 18.7 2 Este 6 Sur 0 956.5 0.5 44
2018-10-03 20:00:00 23.6 4 Sur 10 Sur 0 956.2 0.1 29
2018-10-03 19:00:00 26.9 3 Sur 14 Sur 0 956 -0.3 27
2018-10-03 18:00:00 28.2 5 Sur 15 Sur 0 956 -1.2 26
2018-10-03 17:00:00 29.2 0 Calma 27 Oeste 0 956.1 -1.8 26
2018-10-03 16:00:00 28 5 Sur 18 Este 0 956.3 -2 27
2018-10-03 15:00:00 27.2 7 Este 18 Este 0 957.2 -1.2 27
2018-10-03 14:00:00 26.5 7 Sudeste 17 Sur 0 957.9 -0.3 30
2018-10-03 13:00:00 25.4 3 Sudeste 10 Sur 0 958.3 0.5 48
2018-10-03 12:00:00 23 3 Sudeste 12 Sudeste 0 958.4 1.2 59
2018-10-03 11:00:00 19.8 7 Este 14 Este 0 958.2 1.4 74
2018-10-03 10:00:00 17.1 4 Este 9 Este 0 957.8 1.2 81
2018-10-03 09:00:00 13 3 Sudeste 6 Este 0 957.2 0.7 91
2018-10-03 08:00:00 12.2 4 Este 10 Este 0 956.8 0 85
2018-10-03 07:00:00 11.1 5 Este 9 Este 0 956.6 -0.4 79
2018-10-03 06:00:00 11.2 5 Este 10 Este 0 956.5 -0.6 56
2018-10-03 05:00:00 10.9 2 Sudeste 6 Este 0 956.8 -0.4 51
2018-10-03 04:00:00 12.3 4 Sudeste 7 Este 0 957 0 47
2018-10-03 03:00:00 11 3 Este 6 Este 0 957.1 0.3 47
2018-10-03 02:00:00 12.9 3 Sudeste 6 Nordeste 0 957.2 0.7 39
2018-10-03 01:00:00 14.4 3 Sudeste 11 Este 0 957 0.6 31
2018-10-03 00:00:00 19.9 7 Este 11 Este 0 956.8 0.9 21
2018-10-02 23:00:00 18.9 6 Este 11 Nordeste 0 956.5 1 25
2018-10-02 22:00:00 21 5 Nordeste 13 Norte 0 956.4 1.1 22
2018-10-02 21:00:00 17.7 0 Calma 5 Este 0 955.9 0.6 32
2018-10-02 20:00:00 23.3 3 Nordeste 14 Nordeste 0 955.5 0.2 19
2018-10-02 19:00:00 27.1 6 Nordeste 20 Nordeste 0 955.3 0 17
2018-10-02 18:00:00 27.9 9 Nordeste 17 Nordeste 0 955.3 -0.4 17
2018-10-02 17:00:00 28.6 7 Nordeste 24 Este 0 955.3 -0.8 19
2018-10-02 16:00:00 29.6 5 Nordeste 19 Este 0 955.3 -1.4 20
2018-10-02 15:00:00 28.3 6 Nordeste 15 Norte 0 955.7 -1.2 21
2018-10-02 14:00:00 27.4 6 Este 21 Este 0 956.1 -0.6 22
2018-10-02 13:00:00 26.5 10 Este 20 Este 0 956.7 0.7 23
2018-10-02 12:00:00 25.1 10 Este 20 Este 0 956.9 1.4 26
2018-10-02 11:00:00 22.5 12 Este 18 Este 0 956.7 1.5 31
2018-10-02 10:00:00 20.2 7 Este 15 Este 0 956 1.4 39
2018-10-02 09:00:00 16.9 4 Sudeste 11 Sudeste 0 955.5 1.1 44
2018-10-02 08:00:00 13.3 5 Este 10 Este 0 955.2 0.8 62
2018-10-02 07:00:00 14.8 6 Este 11 Este 0 954.6 0.1 62
2018-10-02 06:00:00 13.6 2 Este 6 Este 0 954.4 -0.2 81
2018-10-02 05:00:00 14.2 0 Calma 8 Este 0 954.4 -0.1 70
2018-10-02 04:00:00 16.5 4 Este 10 Sudeste 0 954.5 -0.4 57
2018-10-02 03:00:00 20.5 8 Este 16 Este 0 954.6 0.1 41
2018-10-02 02:00:00 18.2 3 Este 12 Este 0 954.5 0.3 48
2018-10-02 01:00:00 17.1 3 Sudeste 17 Este 0 954.9 1.1 58
2018-10-02 00:00:00 17.5 2 Oeste 8 Noroeste 0 954.5 0.9 54
2018-10-01 23:00:00 18.2 0 Calma 5 Nordeste 0 954.2 0.8 53
2018-10-01 22:00:00 21.6 0 Calma 8 Norte 0 953.8 0.8 37
2018-10-01 21:00:00 23.9 2 Noroeste 10 Este 0 953.6 0.9 31
2018-10-01 20:00:00 27 4 Noroeste 18 Nordeste 0 953.4 0.4 26
2018-10-01 19:00:00 29.3 3 Nordeste 19 Norte 0 953 -0.2 25
2018-10-01 18:00:00 30.1 10 Noroeste 22 Norte 0 952.7 -1.2 25
2018-10-01 17:00:00 29.4 10 Este 26 Nordeste 0 953 -1.5 25
2018-10-01 16:00:00 30.2 8 Noroeste 19 Oeste 0 953.2 -1.6 25
2018-10-01 15:00:00 29.3 5 Noroeste 23 Oeste 0 953.9 -1.4 30
2018-10-01 14:00:00 28.7 7 Noroeste 15 Noroeste 0 954.5 -0.5 33
2018-10-01 13:00:00 25.8 6 Oeste 14 Oeste 0 954.8 0 43
2018-10-01 12:00:00 25.5 6 Noroeste 14 Oeste 0 955.3 0.9 48
2018-10-01 11:00:00 22.6 3 Oeste 6 Oeste 0 955 1 59
2018-10-01 10:00:00 18.9 2 Sudeste 5 Sudeste 0 954.8 1.2 81
2018-10-01 09:00:00 15.5 3 Sudeste 7 Este 0 954.4 0.6 91
2018-10-01 08:00:00 14.5 3 Este 6 Este 0 954 0.2 92
2018-10-01 07:00:00 15.1 4 Este 8 Este 0 953.6 -0.6 91
2018-10-01 06:00:00 15.7 4 Este 9 Este 0 953.8 -1 87
2018-10-01 05:00:00 17.2 0 Calma 9 Norte 0 953.8 -0.9 77
2018-10-01 04:00:00 17.8 2 Norte 11 Norte 0 954.2 -0.4 73
2018-10-01 03:00:00 15.7 2 Este 6 Oeste 0 954.8 0.2 90
2018-10-01 02:00:00 16.2 0 Calma 5 Este 0 954.7 0.2 87
2018-10-01 01:00:00 17 4 Este 8 Este 0 954.6 0.2 86
2018-10-01 00:00:00 17.8 4 Este 6 Este 0 954.6 0.6 85
2018-09-30 23:00:00 18.4 4 Este 8 Este 0 954.5 0.5 82
2018-09-30 22:00:00 18.7 0 Calma 7 Noroeste 0 954.4 0.4 87
2018-09-30 21:00:00 18.6 0 Calma 6 Sudeste 0 954 0.2 91
2018-09-30 20:00:00 19.3 3 Sudeste 7 Este 0 954 0.9 91
2018-09-30 19:00:00 20.4 0 Calma 20 Norte 7.5 954 0.6 85
2018-09-30 18:00:00 25 7 Norte 24 Nordeste 0 953.8 -0.2 41
2018-09-30 17:00:00 28.9 5 Sudoeste 19 Oeste 0 953.1 -1.4 36
2018-09-30 16:00:00 28.6 6 Oeste 20 Sur 0 953.4 -1.4 40
2018-09-30 15:00:00 27.6 7 Sudoeste 17 Sur 0 954 -1.3 43
2018-09-30 14:00:00 27.5 3 Noroeste 22 Oeste 0 954.5 -0.9 43
2018-09-30 13:00:00 25.3 9 Oeste 20 Oeste 0 954.8 0.1 48
2018-09-30 12:00:00 23 9 Sudoeste 16 Sudoeste 0 955.3 1.2 56
2018-09-30 11:00:00 20.9 7 Sudoeste 13 Sudoeste 0 955.4 2.2 68
2018-09-30 10:00:00 18.4 2 Noroeste 6 Noroeste 0 954.7 2 80
2018-09-30 09:00:00 15 0 Calma 4 Sur 0 954.1 1.5 89
2018-09-30 08:00:00 15 0 Calma 7 Este 0 953.2 0.9 87
2018-09-30 07:00:00 15.4 4 Este 7 Este 0 952.7 0.2 86
2018-09-30 06:00:00 15 3 Este 6 Este 0 952.6 0.1 87
2018-09-30 05:00:00 15.7 3 Este 5 Este 0 952.3 -0.1 86
2018-09-30 04:00:00 15.9 2 Este 5 Este 0 952.5 0 84
2018-09-30 03:00:00 16.5 3 Sudeste 8 Este 0 952.5 -0.3 80
2018-09-30 02:00:00 17.1 2 Sudeste 7 Este 0 952.4 -0.1 79
2018-09-30 01:00:00 17.3 3 Este 6 Este 0 952.5 0.2 76
2018-09-30 00:00:00 17.5 0 Calma 3 Sudeste 0 952.8 1 74
2018-09-29 23:00:00 18.6 0 Calma 4 Sudeste 0 952.5 1.3 69
2018-09-29 22:00:00 20.6 0 Calma 10 Sur 0 952.3 1.3 57
2018-09-29 21:00:00 23.9 5 Sur 11 Sudoeste 0 951.8 0.7 47
2018-09-29 20:00:00 25.3 3 Sur 12 Sur 0 951.2 -0.2 43
2018-09-29 19:00:00 27 5 Sur 15 Sudoeste 0 951 -0.6 40
2018-09-29 18:00:00 27.7 6 Sudoeste 18 Sur 0 951.1 -1.2 39
2018-09-29 17:00:00 27.3 3 Oeste 21 Sudoeste 0 951.4 -1.6 40
2018-09-29 16:00:00 28.3 9 Noroeste 22 Sudeste 0 951.6 -1.8 39
2018-09-29 15:00:00 28.1 3 Noroeste 13 Sudoeste 0 952.3 -1.5 39
2018-09-29 14:00:00 27.4 4 Sur 15 Sur 0 953 -0.9 43
2018-09-29 13:00:00 26.2 5 Sur 16 Sur 0 953.4 -0.3 47
2018-09-29 12:00:00 24.2 3 Sur 12 Sur 0 953.8 0.4 53
2018-09-29 11:00:00 21.8 2 Este 6 Este 0 953.9 0.7 64
2018-09-29 10:00:00 18.9 3 Este 6 Este 0 953.7 1.1 77
2018-09-29 09:00:00 14.2 0 Calma 5 Este 0 953.4 0.6 92
2018-09-29 08:00:00 13.7 0 Calma 4 Este 0 953.2 0.4 92
2018-09-29 07:00:00 13.7 2 Este 5 Sudeste 0 952.6 -0.9 91
2018-09-29 06:00:00 14.3 0 Calma 6 Este 0 952.8 -0.7 90
2018-09-29 05:00:00 15 4 Sudeste 8 Este 0 952.8 -1 89
2018-09-29 04:00:00 15.5 3 Sudeste 7 Este 0 953.5 -0.3 85
2018-09-29 03:00:00 14.8 4 Este 7 Este 0 953.5 -0.3 86
2018-09-29 02:00:00 15.7 3 Este 7 Este 0 953.8 -0.1 82
2018-09-29 01:00:00 16.2 3 Este 5 Este 0 953.8 0 79
2018-09-29 00:00:00 17.1 0 Calma 8 Este 0 953.8 0.4 73
2018-09-28 23:00:00 17.7 2 Este 4 Sudeste 0 953.9 0.7 70
2018-09-28 22:00:00 19.1 2 Sudeste 5 Este 0 953.8 0.7 65
2018-09-28 21:00:00 20.8 3 Este 8 Sur 0 953.4 0.1 56
2018-09-28 20:00:00 25.2 0 Calma 10 Sur 0 953.2 -0.5 43
2018-09-28 19:00:00 26.9 6 Sur 15 Sur 0 953.1 -1.3 39
2018-09-28 18:00:00 28.7 0 Calma 19 Este 0 953.3 -1.9 33
2018-09-28 17:00:00 27.7 3 Sudeste 17 Sur 0 953.7 -2.1 36
2018-09-28 16:00:00 27.6 5 Sur 22 Este 0 954.4 -2.3 36
2018-09-28 15:00:00 26.5 5 Este 19 Este 0 955.2 -1.9 40
2018-09-28 14:00:00 26.6 7 Este 18 Este 0 955.8 -1.5 45
2018-09-28 13:00:00 25.1 5 Este 15 Este 0 956.7 -0.5 51
2018-09-28 12:00:00 23.6 3 Sudeste 14 Sur 0 957.1 0.3 56
2018-09-28 11:00:00 21.8 4 Sudeste 14 Este 0 957.3 0.6 64
2018-09-28 10:00:00 19.7 5 Este 10 Este 0 957.2 0.7 75
2018-09-28 09:00:00 16.1 0 Calma 7 Sudeste 0 956.8 0.4 86
2018-09-28 08:00:00 14.7 4 Sudeste 8 Este 0 956.7 0 89
2018-09-28 07:00:00 15.4 2 Sudeste 8 Este 0 956.5 -0.8 86
2018-09-28 06:00:00 15.6 2 Sudeste 3 Sudeste 0 956.4 -1.5 86
2018-09-28 05:00:00 15.9 0 Calma 4 Este 0 956.7 -1.3 84
2018-09-28 04:00:00 16.4 0 Calma 4 Este 0 957.3 -1.3 82
2018-09-28 03:00:00 16.6 0 Calma 4 Este 0 957.9 -1 81
2018-09-28 02:00:00 17.9 4 Este 6 Este 0 958 -0.9 75
2018-09-28 01:00:00 19.1 0 Calma 5 Este 0 958.6 0 69
2018-09-28 00:00:00 20 0 Calma 5 Norte 0 958.9 0.7 64
2018-09-27 23:00:00 22.2 4 Sur 14 Sur 0 958.9 0.9 57
2018-09-27 22:00:00 22 0 Calma 3 Este 0 958.6 0.4 58
2018-09-27 21:00:00 22.3 0 Calma 5 Sudeste 0 958.2 -0.4 54
2018-09-27 20:00:00 25.5 0 Calma 8 Este 0 958 -1.2 43
2018-09-27 19:00:00 27.9 3 Sur 12 Este 0 958.2 -1.4 38
2018-09-27 18:00:00 27.8 7 Este 17 Este 0 958.6 -1.7 38
2018-09-27 17:00:00 28.2 5 Sudeste 16 Este 0 959.2 -1.9 38
2018-09-27 16:00:00 26.5 8 Este 22 Este 0 959.6 -1.9 40
2018-09-27 15:00:00 27.6 5 Sudeste 23 Este 0 960.3 -1.8 36
2018-09-27 14:00:00 26.6 8 Este 25 Este 0 961.1 -0.9 40
2018-09-27 13:00:00 25.6 8 Este 22 Este 0 961.5 -0.4 46
2018-09-27 12:00:00 24.3 6 Sudeste 23 Este 0 962.1 0.4 50
2018-09-27 11:00:00 22.4 7 Este 24 Este 0 962 0.7 60
2018-09-27 10:00:00 20.4 8 Este 17 Este 0 961.9 0.8 75
2018-09-27 09:00:00 17.5 0 Calma 5 Este 0 961.7 0.6 92
2018-09-27 08:00:00 16.6 0 Calma 5 Este 0 961.3 -0.2 91
2018-09-27 07:00:00 17.7 3 Este 6 Este 0 961.1 -0.8 90
2018-09-27 06:00:00 17.9 0 Calma 5 Este 0 961.1 -0.7 90
2018-09-27 05:00:00 19.1 0 Calma 12 Este 0 961.5 -0.6 87
2018-09-27 04:00:00 19.5 3 Este 8 Este 0 961.9 0.1 86
2018-09-27 03:00:00 20 2 Este 10 Este 0 961.8 0.2 82
2018-09-27 02:00:00 20.8 3 Este 9 Este 0 962.1 -- 75
2018-09-27 01:00:00 21 3 Sudeste 12 Sur 0 961.8 0.2 69
2018-09-27 00:00:00 20.3 4 Este 9 Este 0 961.6 0.7 69
2018-09-26 23:00:00 -- 4 Sudeste 19 Nordeste 0 -- -- --
2018-09-26 22:00:00 21.9 9 Nordeste 28 Norte 0 961.6 2.7 60
2018-09-26 21:00:00 23.3 6 Este 35 Este 0 960.9 2 55
2018-09-26 20:00:00 26.2 3 Sudeste 14 Sur 0 960 1.1 51
2018-09-26 19:00:00 27.7 5 Sudeste 19 Este 0 958.9 -0.4 49
2018-09-26 18:00:00 28.4 8 Este 21 Este 0 958.9 -1 47
2018-09-26 17:00:00 29.1 7 Este 21 Este 0 958.9 -1.4 46
2018-09-26 16:00:00 28.4 8 Este 22 Este 0 959.3 -1.2 49
2018-09-26 15:00:00 28 12 Este 29 Este 0 959.9 -0.7 51
2018-09-26 14:00:00 26.9 9 Sudeste 26 Sur 0 960.3 -0.1 56
2018-09-26 13:00:00 26.4 8 Sudeste 24 Este 0 960.5 0.8 58
2018-09-26 12:00:00 25.4 5 Sudeste 25 Sur 0 960.6 1.3 61
2018-09-26 11:00:00 23.2 8 Sudeste 22 Este 0 960.4 1.5 69
2018-09-26 10:00:00 21.9 7 Sudeste 21 Este 0 959.7 1.4 77
2018-09-26 09:00:00 21.3 6 Este 17 Este 0 959.3 1.4 76
2018-09-26 08:00:00 20.9 8 Sudeste 20 Este 0 958.9 1.2 79
2018-09-26 07:00:00 20.8 9 Este 18 Este 0 958.3 0.6 79
2018-09-26 06:00:00 19.3 7 Este 12 Este 0 957.9 -0.1 80
2018-09-26 05:00:00 19.8 7 Este 11 Este 0 957.7 -0.2 75
2018-09-26 04:00:00 19.3 5 Este 8 Este 0 957.7 0 74
2018-09-26 03:00:00 18.5 0 Calma 4 Sudeste 0 958 0.7 74
2018-09-26 02:00:00 19.4 0 Calma 5 Este 0 957.9 1.1 68
2018-09-26 01:00:00 19.1 0 Calma 5 Nordeste 0 957.7 1.4 59
2018-09-26 00:00:00 20.6 2 Sudeste 5 Este 0 957.3 1.2 52
2018-09-25 23:00:00 21.5 0 Calma 10 Sur 0 956.8 1 49
2018-09-25 22:00:00 21.6 3 Este 6 Este 0 956.3 0.8 49
2018-09-25 21:00:00 24.1 0 Calma 5 Este 0 956.1 0.4 43
2018-09-25 20:00:00 29.9 4 Sudoeste 15 Sur 0 955.8 0 31
2018-09-25 19:00:00 31.2 6 Sur 14 Sur 0 955.5 -0.7 30
2018-09-25 18:00:00 32.1 5 Sudeste 19 Sur 0 955.7 -0.9 29
2018-09-25 17:00:00 32.4 7 Sudoeste 18 Oeste 0 955.8 -1.6 29
2018-09-25 16:00:00 32.1 6 Sur 23 Sudoeste 0 956.2 -1.5 30
2018-09-25 15:00:00 32.3 6 Sur 17 Sudeste 0 956.6 -1.1 32
2018-09-25 14:00:00 31.4 6 Sur 19 Sur 0 957.4 -0.3 33
2018-09-25 13:00:00 30.7 5 Sudeste 18 Sudeste 0 957.7 0.4 35
2018-09-25 12:00:00 28.9 4 Sudeste 16 Sudeste 0 957.7 1 38
2018-09-25 11:00:00 26.9 3 Sudeste 17 Sur 0 957.7 1.4 40
2018-09-25 10:00:00 24.8 5 Este 8 Este 0 957.3 1.5 49
2018-09-25 09:00:00 19.3 3 Sudeste 8 Sudeste 0 956.7 0.8 60
2018-09-25 08:00:00 17.7 3 Sudeste 8 Este 0 956.3 0.3 63
2018-09-25 07:00:00 17.6 3 Sudeste 8 Este 0 955.8 -0.5 63
2018-09-25 06:00:00 18.1 3 Sudeste 8 Este 0 955.9 -0.3 63
2018-09-25 05:00:00 17.2 2 Sudeste 4 Este 0 956 -0.3 65
2018-09-25 04:00:00 18.2 0 Calma 6 Nordeste 0 956.3 -0.2 65
2018-09-25 03:00:00 18.8 5 Este 8 Este 0 956.2 -0.3 61
2018-09-25 02:00:00 18.9 0 Calma 7 Este 0 956.3 0 60
2018-09-25 01:00:00 19.9 3 Sudeste 5 Este 0 956.5 0.7 55
2018-09-25 00:00:00 20.5 2 Este 6 Este 0 956.5 0.9 57
2018-09-24 23:00:00 22 3 Sudeste 5 Sudeste 0 956.3 0.9 53
2018-09-24 22:00:00 23.1 3 Sudeste 6 Sudeste 0 955.8 0.8 50
2018-09-24 21:00:00 25.1 4 Este 8 Sur 0 955.6 0.4 44
2018-09-24 20:00:00 30.3 5 Sur 13 Sudoeste 0 955.4 -0.2 31
2018-09-24 19:00:00 32.7 4 Este 13 Sur 0 955 -1.1 29
2018-09-24 18:00:00 33.2 5 Sur 18 Sur 0 955.2 -1.6 29
2018-09-24 17:00:00 33.6 8 Sudoeste 21 Sur 0 955.6 -1.9 29
2018-09-24 16:00:00 33.6 7 Sur 17 Este 0 956.1 -2 29
2018-09-24 15:00:00 32.7 4 Sudeste 16 Sur 0 956.8 -1.4 29
2018-09-24 14:00:00 34.1 4 Sur 12 Este 0 957.5 -0.5 30
2018-09-24 13:00:00 31.7 5 Sur 15 Sur 0 958.1 0.4 32
2018-09-24 12:00:00 29.9 4 Sudeste 14 Sur 0 958.2 0.7 34
2018-09-24 11:00:00 27.7 5 Sur 13 Sur 0 958 1 37
2018-09-24 10:00:00 23.3 0 Calma 4 Este 0 957.7 1 53
2018-09-24 09:00:00 18 0 Calma 5 Este 0 957.5 0.9 63
2018-09-24 08:00:00 16.7 2 Sudeste 5 Sudeste 0 957 0.4 64
2018-09-24 07:00:00 16.8 3 Sudeste 8 Este 0 956.7 -0.2 63
2018-09-24 06:00:00 17 2 Este 6 Este 0 956.6 -0.7 64
2018-09-24 05:00:00 18.1 3 Sudeste 5 Este 0 956.6 -1 60
2018-09-24 04:00:00 18.7 2 Sudeste 6 Este 0 956.9 -0.8 58
2018-09-24 03:00:00 19 4 Este 7 Este 0 957.3 -0.5 59
2018-09-24 02:00:00 20.4 3 Sudeste 7 Este 0 957.6 0 55
2018-09-24 01:00:00 20.1 3 Sudeste 8 Este 0 957.7 0.3 59
2018-09-24 00:00:00 20 0 Calma 6 Este 0 957.8 0.8 60
2018-09-23 23:00:00 21.1 3 Sudeste 6 Este 0 957.6 0.8 56
2018-09-23 22:00:00 22.5 2 Sudeste 5 Este 0 957.4 0.8 53
2018-09-23 21:00:00 24.9 4 Este 6 Sudoeste 0 957 0.5 45
2018-09-23 20:00:00 30.7 0 Calma 12 Sur 0 956.8 0 32
2018-09-23 19:00:00 32.2 6 Sur 17 Sur 0 956.6 -0.9 30
2018-09-23 18:00:00 33.2 8 Sudoeste 23 Oeste 0 956.5 -1.4 29
2018-09-23 17:00:00 33.6 5 Este 21 Sur 0 956.8 -1.7 28
2018-09-23 16:00:00 33.4 5 Sudeste 20 Este 0 957.5 -1.6 28
2018-09-23 15:00:00 33.1 5 Este 19 Este 0 957.9 -1.3 29
2018-09-23 14:00:00 32.1 5 Este 15 Este 0 958.5 -0.9 29
2018-09-23 13:00:00 31.9 3 Este 10 Este 0 959.1 0 29
2018-09-23 12:00:00 29.8 2 Este 7 Sur 0 959.2 0.6 31
2018-09-23 11:00:00 26.9 2 Sur 9 Sur 0 959.4 1.3 33
2018-09-23 10:00:00 22.5 0 Calma 7 Este 0 959.1 1.1 54
2018-09-23 09:00:00 17.9 0 Calma 7 Este 0 958.6 0.7 64
2018-09-23 08:00:00 17.1 5 Este 7 Este 0 958.1 0.1 68
2018-09-23 07:00:00 17.3 0 Calma 5 Este 0 958 -0.2 68
2018-09-23 06:00:00 17.8 2 Este 6 Sudeste 0 957.9 -0.6 65
2018-09-23 05:00:00 17.7 0 Calma 4 Este 0 958 -0.7 65
2018-09-23 04:00:00 18 2 Sudeste 5 Sudeste 0 958.2 -0.6 64
2018-09-23 03:00:00 18.5 0 Calma 5 Este 0 958.5 -0.1 60
2018-09-23 02:00:00 19 0 Calma 5 Este 0 958.7 0.2 58
2018-09-23 01:00:00 19.7 3 Sudeste 7 Este 0 958.8 0.6 55
2018-09-23 00:00:00 20.7 2 Sudeste 6 Este 0 958.6 1 54
2018-09-22 23:00:00 21.4 2 Este 10 Sur 0 958.5 1.1 53
2018-09-22 22:00:00 21.9 3 Sudeste 5 Este 0 958.2 1.2 49
2018-09-22 21:00:00 24.2 3 Sudeste 5 Este 0 957.6 0.5 42
2018-09-22 20:00:00 29.8 3 Sur 14 Sudoeste 0 957.4 0.2 29
2018-09-22 19:00:00 31.6 5 Sur 21 Sudeste 0 957 -0.5 26
2018-09-22 18:00:00 32.6 6 Sur 17 Este 0 957.1 -0.7 26
2018-09-22 17:00:00 33 4 Sur 18 Este 0 957.2 -1.2 26
2018-09-22 16:00:00 33 8 Este 20 Este 0 957.5 -1.2 28
2018-09-22 15:00:00 33.1 5 Sudeste 21 Sur 0 957.8 -0.9 29
2018-09-22 14:00:00 32.7 5 Sur 17 Sur 0 958.4 -0.1 30
2018-09-22 13:00:00 32 4 Este 14 Este 0 958.7 0.5 33
2018-09-22 12:00:00 30.3 4 Este 9 Nordeste 0 958.7 0.9 34
2018-09-22 11:00:00 27.8 4 Este 7 Este 0 958.5 1.2 42
2018-09-22 10:00:00 23.3 4 Este 6 Este 0 958.2 1.2 58
2018-09-22 09:00:00 18.8 3 Sudeste 6 Este 0 957.8 1.1 69
2018-09-22 08:00:00 17.1 4 Este 7 Este 0 957.3 1 71
2018-09-22 07:00:00 17.3 3 Este 7 Este 0 957 0.7 68
2018-09-22 06:00:00 18.4 4 Este 8 Este 0 956.7 0.1 64
2018-09-22 05:00:00 18.5 4 Este 6 Este 0 956.3 -0.6 63
2018-09-22 04:00:00 18.7 3 Sudeste 8 Este 0 956.3 -0.6 60
2018-09-22 03:00:00 18.1 5 Este 8 Este 0 956.6 -0.1 63
2018-09-22 02:00:00 18.7 4 Este 6 Este 0 956.9 0.4 60
2018-09-22 01:00:00 20 4 Sudeste 7 Sudeste 0 956.9 0.7 57
2018-09-22 00:00:00 18.6 4 Este 5 Este 0 956.7 1.3 61
2018-09-21 23:00:00 19.5 3 Este 5 Este 0 956.5 1.6 58
2018-09-21 22:00:00 20.4 3 Este 4 Sudeste 0 956.2 1.6 53
2018-09-21 21:00:00 22.5 3 Este 6 Sudeste 0 955.4 0.8 44
2018-09-21 20:00:00 28 4 Sur 10 Sur 0 954.9 0.2 32
2018-09-21 19:00:00 30.5 5 Sur 17 Sur 0 954.6 -0.4 29
2018-09-21 18:00:00 30.4 6 Sudoeste 18 Sur 0 954.6 -0.8 30
2018-09-21 17:00:00 30.9 6 Sur 17 Sudeste 0 954.7 -1.3 33
2018-09-21 16:00:00 30.2 4 Sudeste 18 Sur 0 955 -1.3 35
2018-09-21 15:00:00 30 0 Calma 16 Sudeste 0 955.4 -1.1 38
2018-09-21 14:00:00 30.2 3 Sudeste 15 Sur 0 956 -0.2 37
2018-09-21 13:00:00 28.7 4 Sur 12 Sudoeste 0 956.3 0.8 38
2018-09-21 12:00:00 27.4 2 Nordeste 8 Noroeste 0 956.5 0.9 40
2018-09-21 11:00:00 24.6 2 Este 8 Este 0 956.2 1.1 43
2018-09-21 10:00:00 21.6 2 Sudeste 8 Este 0 955.5 0.6 59
2018-09-21 09:00:00 17.4 4 Este 8 Este 0 955.6 1.3 86
2018-09-21 08:00:00 16.5 4 Este 7 Nordeste 0 955.1 0.5 88
2018-09-21 07:00:00 16.2 0 Calma 5 Este 0 954.9 0.1 89
2018-09-21 06:00:00 16.7 3 Este 7 Este 0 954.3 -0.6 88
2018-09-21 05:00:00 17.4 3 Este 5 Este 0 954.6 -0.2 90
2018-09-21 04:00:00 17.5 0 Calma 4 Este 0 954.8 -0.4 90
2018-09-21 03:00:00 18 0 Calma 3 Este 0 954.9 -0.1 89
2018-09-21 02:00:00 18.3 2 Este 3 Este 0 954.8 -0.2 85
2018-09-21 01:00:00 18.8 0 Calma 4 Este 0 955.2 0.5 77
2018-09-21 00:00:00 20 2 Este 4 Este 0 955 0.8 70
2018-09-20 23:00:00 21 0 Calma 4 Oeste 0 955 0.9 65
2018-09-20 22:00:00 23.8 3 Oeste 10 Sur 0 954.7 0.4 58
2018-09-20 21:00:00 24.6 3 Sur 8 Sur 0 954.2 0.2 58
2018-09-20 20:00:00 27.6 0 Calma 7 Sur 0 954.1 -0.4 48
2018-09-20 19:00:00 28 0 Calma 17 Sudoeste 0 954.3 -0.7 46
2018-09-20 18:00:00 29.9 5 Sudoeste 15 Sudoeste 0 954 -1.7 41
2018-09-20 17:00:00 30.4 5 Sur 19 Sur 0 954.5 -1.7 41
2018-09-20 16:00:00 29.7 5 Sudeste 19 Sur 0 955 -1.8 47
2018-09-20 15:00:00 29 3 Este 18 Sur 0 955.7 -1.2 50
2018-09-20 14:00:00 28.2 3 Sur 18 Sur 0 956.2 -0.6 51
2018-09-20 13:00:00 27.3 3 Sur 13 Sur 0 956.8 0.2 54
2018-09-20 12:00:00 26.1 5 Sudeste 12 Sudeste 0 956.9 0.6 58
2018-09-20 11:00:00 23.5 3 Sudeste 9 Sur 0 956.8 0.8 65
2018-09-20 10:00:00 21 0 Calma 4 Este 0 956.6 0.9 87
2018-09-20 09:00:00 17.6 0 Calma 6 Este 0 956.3 0.5 99
2018-09-20 08:00:00 16.6 0 Calma 5 Este 0 956 0 99
2018-09-20 07:00:00 16.6 2 Este 5 Este 0 955.7 -0.3 99
2018-09-20 06:00:00 16.6 0 Calma 3 Sudeste 0 955.8 -0.5 98
2018-09-20 05:00:00 17.3 0 Calma 6 Nordeste 0 956 -0.1 96
2018-09-20 04:00:00 17.3 0 Calma 5 Este 0 956 -0.3 94
2018-09-20 03:00:00 17.7 0 Calma 5 Este 0 956.3 -0.1 89
2018-09-20 02:00:00 18.7 4 Este 8 Este 0 956.1 -0.4 83
2018-09-20 01:00:00 18.9 2 Sudeste 6 Este 0 956.3 0.2 83
2018-09-20 00:00:00 19.4 0 Calma 6 Este 0 956.4 0.8 80
2018-09-19 23:00:00 19.7 3 Este 5 Este 0 956.5 1.1 80
2018-09-19 22:00:00 20.7 2 Este 6 Este 0 956.1 0.7 73
2018-09-19 21:00:00 21.9 4 Este 6 Este 0 955.6 0.6 65
2018-09-19 20:00:00 25.1 0 Calma 4 Este 0 955.4 0.1 55
2018-09-19 19:00:00 26 0 Calma 5 Sur 0 955.4 -0.5 52
2018-09-19 18:00:00 28.5 2 Sudoeste 13 Sudoeste 0 955 -0.9 40
2018-09-19 17:00:00 29.8 4 Sur 23 Sur 0 955.3 -1 45
2018-09-19 16:00:00 27.1 5 Sudoeste 12 Sur 0 955.9 -0.9 49
2018-09-19 15:00:00 30 5 Sudoeste 19 Nordeste 0 955.9 -1.1 34
2018-09-19 14:00:00 30.1 3 Sudeste 13 Este 0 956.3 -0.1 36
2018-09-19 13:00:00 28.7 6 Este 12 Este 0 956.8 0.8 40
2018-09-19 12:00:00 27.2 5 Este 13 Este 0 957 1.2 44
2018-09-19 11:00:00 25.3 5 Este 8 Este 0 956.4 0.8 47
2018-09-19 10:00:00 21.2 0 Calma 4 Este 0 956 0.9 72
2018-09-19 09:00:00 16.7 0 Calma 4 Este 0 955.8 0.9 93
2018-09-19 08:00:00 15.9 2 Sudeste 6 Este 0 955.6 0.8 92
2018-09-19 07:00:00 16 3 Este 5 Este 0 955.1 0.1 94
2018-09-19 06:00:00 16.3 2 Este 4 Este 0 954.9 -0.2 94
2018-09-19 05:00:00 16.8 0 Calma 6 Este 0 954.8 -0.2 95
2018-09-19 04:00:00 17.1 2 Sudeste 5 Sudeste 0 955 0.3 98
2018-09-19 03:00:00 18 4 Este 6 Este 0 955.1 0.2 93
2018-09-19 02:00:00 18.1 0 Calma 5 Este 0 955 0.2 91
2018-09-19 01:00:00 19 0 Calma 5 Sudeste 0 954.7 0.5 85
2018-09-19 00:00:00 19.6 0 Calma 7 Este 0 954.9 1.1 82
2018-09-18 23:00:00 19.8 3 Este 10 Este 0 954.8 1.7 78
2018-09-18 22:00:00 20.7 0 Calma 10 Este 0 954.2 1.1 67
2018-09-18 21:00:00 23.4 8 Nordeste 20 Nordeste 0 953.8 1.1 56
2018-09-18 20:00:00 25.8 4 Oeste 14 Noroeste 0 953.1 0.7 53
2018-09-18 19:00:00 26.6 4 Sur 13 Sudeste 0 953.1 0.5 51
2018-09-18 18:00:00 24.5 5 Sudoeste 18 Oeste 0 952.7 -0.3 61
2018-09-18 17:00:00 27.6 6 Sudoeste 21 Oeste 0 952.4 -1.1 43
2018-09-18 16:00:00 28.9 5 Sur 17 Oeste 0 952.6 -1.1 45
2018-09-18 15:00:00 27.8 0 Calma 18 Sudoeste 0 953 -0.9 48
2018-09-18 14:00:00 28.4 3 Sudeste 14 Oeste 0 953.5 -0.1 48
2018-09-18 13:00:00 26.7 4 Sudoeste 15 Sur 0 953.7 0.4 52
2018-09-18 12:00:00 25.4 6 Sudoeste 15 Sudoeste 0 953.9 1.1 58
2018-09-18 11:00:00 23.8 0 Calma 6 Este 0 953.6 1.1 67
2018-09-18 10:00:00 20.6 0 Calma 5 Este 0 953.3 1.2 92
2018-09-18 09:00:00 17.7 3 Sudeste 5 Este 0 952.8 1.2 99
2018-09-18 08:00:00 16.7 3 Este 9 Este 0 952.5 0.7 99
2018-09-18 07:00:00 16.9 3 Sudeste 6 Este 0 952.1 0.2 99
2018-09-18 06:00:00 17.3 2 Sudeste 4 Este 0 951.6 -0.5 99
2018-09-18 05:00:00 17.5 0 Calma 5 Este 0 951.8 -0.4 99
2018-09-18 04:00:00 17.8 2 Este 5 Este 0 951.9 -0.6 99
2018-09-18 03:00:00 18.7 0 Calma 6 Este 0 952.1 -0.3 92
2018-09-18 02:00:00 20 0 Calma 10 Este 0 952.2 -0.1 80
2018-09-18 01:00:00 20.6 3 Sudeste 10 Sur 0 952.5 0.5 76
2018-09-18 00:00:00 20.4 0 Calma 6 Sudeste 0 952.4 0.9 74
2018-09-17 23:00:00 20.7 2 Sudeste 7 Oeste 0 952.3 1 72
2018-09-17 22:00:00 21.7 3 Este 7 Este 0 952 1.3 67
2018-09-17 21:00:00 22.4 5 Oeste 16 Noroeste 0 951.5 0.8 61
2018-09-17 20:00:00 24.3 9 Norte 22 Noroeste 0 951.3 -0.1 53
2018-09-17 19:00:00 26.4 3 Noroeste 14 Noroeste 0 950.7 -1.3 49
2018-09-17 18:00:00 27.9 6 Oeste 17 Oeste 0 950.7 -2.3 46
2018-09-17 17:00:00 28.3 5 Oeste 17 Sur 0 951.4 -2.2 47
2018-09-17 16:00:00 27.6 9 Sur 23 Sur 0 952 -2 50
2018-09-17 15:00:00 26.8 10 Sur 21 Sur 0 953 -1.2 51
2018-09-17 14:00:00 25 9 Este 23 Sur 0 953.6 -0.6 55
2018-09-17 13:00:00 26.1 8 Sudeste 23 Sudeste 0 954 0 54
2018-09-17 12:00:00 24.9 6 Sudeste 19 Sudeste 0 954.2 0.2 61
2018-09-17 11:00:00 23 4 Sudeste 16 Sur 0 954.2 0.3 71
2018-09-17 10:00:00 22.1 2 Sudeste 9 Sur 0 954 0.4 79
2018-09-17 09:00:00 18.4 3 Este 6 Este 0 954 -0.1 99
2018-09-17 08:00:00 16.9 3 Este 6 Este 0 953.9 -0.2 99
2018-09-17 07:00:00 17.6 0 Calma 4 Sudeste 0 953.6 -0.4 99
2018-09-17 06:00:00 18.8 2 Este 8 Sur 0 954.1 -0.4 98
2018-09-17 05:00:00 17.6 0 Calma 4 Este 0 954.1 -0.5 99
2018-09-17 04:00:00 18.5 0 Calma 8 Este 0 954 -0.8 95
2018-09-17 03:00:00 19.4 4 Este 8 Sudeste 0 954.5 -0.3 96
2018-09-17 02:00:00 18.8 0 Calma 9 Este 0 954.6 -0.7 92
2018-09-17 01:00:00 18.9 3 Este 7 Este 0 954.8 -0.4 86
2018-09-17 00:00:00 18.4 4 Este 6 Este 0 954.8 0.3 88
2018-09-16 23:00:00 19.4 2 Sudeste 5 Este 0 955.3 0.8 80
2018-09-16 22:00:00 20.4 0 Calma 4 Este 0 955.2 1 71
2018-09-16 21:00:00 22.1 2 Este 11 Sur 0 954.5 0.5 58
2018-09-16 20:00:00 26.2 5 Sur 12 Sur 0 954.5 -0.1 41
2018-09-16 19:00:00 28 3 Sudeste 10 Sur 0 954.2 -0.9 38
2018-09-16 18:00:00 28.3 5 Este 12 Este 0 954 -1.8 39
2018-09-16 17:00:00 28 4 Este 14 Nordeste 0 954.6 -- 41
2018-09-16 16:00:00 28.1 3 Nordeste 15 Este 0 955.1 -1.8 43
2018-09-16 15:00:00 27.2 4 Sudeste 14 Este 0 955.8 -1.6 46
2018-09-16 14:00:00 -- 3 Sudeste 13 Sur 0 -- -- --
2018-09-16 13:00:00 25 5 Sudeste 19 Este 0 956.9 -0.1 56
2018-09-16 12:00:00 23.6 5 Sudeste 16 Sur 0 957.4 0.9 64
2018-09-16 11:00:00 22.3 4 Sudeste 15 Sur 0 957.3 1.2 70
2018-09-16 10:00:00 20.9 3 Sudeste 10 Sur 0 957 1 83
2018-09-16 09:00:00 17.8 5 Este 8 Este 0 956.5 0.7 99
2018-09-16 08:00:00 16.7 0 Calma 6 Este 0 956.1 0.1 99
2018-09-16 07:00:00 16.4 0 Calma 4 Este 0 956 -0.3 99
2018-09-16 06:00:00 17.3 0 Calma 9 Este 0 955.8 -0.7 99
2018-09-16 05:00:00 17.6 3 Este 7 Este 0 956 -0.8 99
2018-09-16 04:00:00 17.6 6 Este 10 Este 0 956.3 -0.7 99
2018-09-16 03:00:00 16.3 0 Calma 9 Este 0 956.5 -0.1 99
2018-09-16 02:00:00 16.8 2 Sudeste 5 Este 0 956.8 0.2 99
2018-09-16 01:00:00 17.2 3 Este 5 Este 0 957 1.2 98
2018-09-16 00:00:00 17.3 0 Calma 4 Sudeste 0 956.6 1.5 99
2018-09-15 23:00:00 18.3 0 Calma 5 Sudeste 0 956.6 1.7 94
2018-09-15 22:00:00 18.4 0 Calma 5 Noroeste 0 955.8 1.9 90
2018-09-15 21:00:00 19 3 Noroeste 16 Este 0 955.1 1.5 80
2018-09-15 20:00:00 19.8 6 Sudeste 29 Sudeste 0 954.9 1.2 65
2018-09-15 19:00:00 26 8 Sur 17 Sur 0 953.9 -0.2 49
2018-09-15 18:00:00 27.3 2 Este 11 Sudoeste 0 953.6 -0.9 42
2018-09-15 17:00:00 27.4 4 Sudoeste 14 Norte 0 953.7 -1.3 42
2018-09-15 16:00:00 26.8 3 Este 12 Este 0 954.1 -1.2 45
2018-09-15 15:00:00 26 3 Este 11 Nordeste 0 954.5 -1.1 49
2018-09-15 14:00:00 25.7 0 Calma 10 Este 0 955 -0.4 51
2018-09-15 13:00:00 23.8 4 Este 10 Este 0 955.3 0.2 56
2018-09-15 12:00:00 22.6 3 Este 12 Este 0 955.6 1.1 58
2018-09-15 11:00:00 22.3 5 Este 9 Este 0 955.4 1.3 60
2018-09-15 10:00:00 19 0 Calma 4 Noroeste 0 955.1 1.3 89
2018-09-15 09:00:00 15.9 0 Calma 5 Este 0 954.5 0.6 99
2018-09-15 08:00:00 16 0 Calma 7 Este 0 954.1 0.3 99
2018-09-15 07:00:00 17.2 3 Sudeste 10 Este 0 953.8 -0.1 94
2018-09-15 06:00:00 17.1 4 Sudeste 12 Este 0 953.9 -0.3 96
2018-09-15 05:00:00 17 4 Sudeste 9 Este 0 953.8 -1 99
2018-09-15 04:00:00 17.1 3 Este 9 Sudeste 0 953.9 -0.8 99
2018-09-15 03:00:00 17.1 0 Calma 11 Norte 0 954.2 -0.7 96
2018-09-15 02:00:00 17.3 3 Norte 23 Noroeste 0 954.8 -1.2 96
2018-09-15 01:00:00 17.2 5 Noroeste 18 Oeste 0.1 954.7 -1.8 95
2018-09-15 00:00:00 16.9 8 Oeste 15 Oeste 0.3 954.9 0.2 99